Time;durP1;ratioP1;P1;durP2;ratioP2;P2;SDS_P1;SDS_P2;PMS_P1;PMS_P2;Temp;Humidity;BMP_temperature;BMP_pressure;BME280_temperature;BME280_humidity;BME280_pressure;Samples;Min_cycle;Max_cycle;Signal;HPM_P1;HPM_P2
2021/08/04 00:01:56;;;;;;;3.90;1.95;;;;;;;;;;6299913;22;20011;-46
2021/08/04 00:04:22;;;;;;;1.90;0.95;;;;;;;;;;6299966;22;19995;-42
2021/08/04 00:06:47;;;;;;;1.75;1.33;;;;;;;;;;6299493;22;20010;-46
2021/08/04 00:09:12;;;;;;;4.00;1.42;;;;;;;;;;6299242;22;20409;-43
2021/08/04 00:11:38;;;;;;;2.03;1.35;;;;;;;;;;6299550;22;20005;-44
2021/08/04 00:14:03;;;;;;;4.90;1.77;;;;;;;;;;6299841;22;20000;-47
2021/08/04 00:16:29;;;;;;;1.40;1.25;;;;;;;;;;6301091;22;20359;-43
2021/08/04 00:18:54;;;;;;;3.97;1.70;;;;;;;;;;6302678;22;20074;-44
2021/08/04 00:21:19;;;;;;;2.08;1.35;;;;;;;;;;6303056;22;20064;-43
2021/08/04 00:23:45;;;;;;;1.95;1.48;;;;;;;;;;6303094;22;20151;-45
2021/08/04 00:26:10;;;;;;;1.98;1.45;;;;;;;;;;6302927;22;20003;-43
2021/08/04 00:28:35;;;;;;;2.35;0.93;;;;;;;;;;6302923;22;20003;-43
2021/08/04 00:31:01;;;;;;;2.03;1.27;;;;;;;;;;6302810;22;20491;-45
2021/08/04 00:33:26;;;;;;;1.80;1.33;;;;;;;;;;6303424;22;19991;-42
2021/08/04 00:35:51;;;;;;;2.08;1.48;;;;;;;;;;6303414;22;20019;-41
2021/08/04 00:38:16;;;;;;;7.32;1.45;;;;;;;;;;6302988;22;20433;-43
2021/08/04 00:40:42;;;;;;;1.50;0.82;;;;;;;;;;6303078;22;20068;-43
2021/08/04 00:43:07;;;;;;;28.25;2.33;;;;;;;;;;6302463;22;19999;-42
2021/08/04 00:45:36;;;;;;;1.83;0.88;;;;;;;;;;6303177;22;20444;-42
2021/08/04 00:48:02;;;;;;;6.45;1.40;;;;;;;;;;6302731;22;19996;-43
2021/08/04 00:50:27;;;;;;;2.85;1.50;;;;;;;;;;6302990;22;19991;-42
2021/08/04 00:52:53;;;;;;;2.40;1.60;;;;;;;;;;6302560;22;20502;-43
2021/08/04 00:55:18;;;;;;;3.35;1.83;;;;;;;;;;6302627;22;20003;-41
2021/08/04 00:57:43;;;;;;;20.70;3.03;;;;;;;;;;6302726;22;20122;-42
2021/08/04 01:00:10;;;;;;;26.40;4.68;;;;;;;;;;6302870;22;20027;-42
2021/08/04 01:02:46;;;;;;;6.25;1.92;;;;;;;;;;6303041;22;19991;-41
2021/08/04 01:05:17;;;;;;;22.52;3.97;;;;;;;;;;6302739;22;20022;-46
2021/08/04 01:07:48;;;;;;;4.97;1.25;;;;;;;;;;6302443;22;20094;-48
2021/08/04 01:10:15;;;;;;;181.43;32.15;;;;;;;;;;6302434;22;19996;-44
2021/08/04 01:12:51;;;;;;;3.75;2.03;;;;;;;;;;6302827;22;19999;-49
2021/08/04 01:15:17;;;;;;;4.25;2.03;;;;;;;;;;6303009;22;20066;-48
2021/08/04 01:17:44;;;;;;;3.25;1.50;;;;;;;;;;6302694;22;20417;-45
2021/08/04 01:20:12;;;;;;;2.67;1.25;;;;;;;;;;6302173;22;20075;-45
2021/08/04 01:22:37;;;;;;;2.13;1.30;;;;;;;;;;6302303;22;19999;-42
2021/08/04 01:25:10;;;;;;;3.05;1.55;;;;;;;;;;6302588;22;20079;-43
2021/08/04 01:27:36;;;;;;;2.33;1.77;;;;;;;;;;6302648;22;20018;-42
2021/08/04 01:30:02;;;;;;;1.83;1.45;;;;;;;;;;6302674;22;19995;-44
2021/08/04 01:32:28;;;;;;;3.47;2.35;;;;;;;;;;6302193;22;20664;-42
2021/08/04 01:34:54;;;;;;;2.13;1.58;;;;;;;;;;6302089;22;19995;-42
2021/08/04 01:37:21;;;;;;;1.55;1.08;;;;;;;;;;6302147;22;20031;-44
2021/08/04 01:39:47;;;;;;;3.83;1.20;;;;;;;;;;6302008;22;20440;-49
2021/08/04 01:42:13;;;;;;;5.43;2.13;;;;;;;;;;6302298;22;20125;-45
2021/08/04 01:44:38;;;;;;;2.42;1.33;;;;;;;;;;6302800;22;20046;-47
2021/08/04 01:47:04;;;;;;;3.22;1.38;;;;;;;;;;6302428;22;19995;-47
2021/08/04 01:49:30;;;;;;;3.88;1.50;;;;;;;;;;6302085;22;19999;-47
2021/08/04 01:51:56;;;;;;;5.10;1.65;;;;;;;;;;6302405;22;20009;-44
2021/08/04 01:54:21;;;;;;;2.17;1.30;;;;;;;;;;6302426;22;19999;-48
2021/08/04 01:56:47;;;;;;;91.50;9.52;;;;;;;;;;6302511;22;20066;-45
2021/08/04 01:59:12;;;;;;;5.15;1.52;;;;;;;;;;6302387;22;20004;-45
2021/08/04 02:01:38;;;;;;;9.93;3.22;;;;;;;;;;6301920;22;20192;-44
2021/08/04 02:04:03;;;;;;;20.08;5.22;;;;;;;;;;6301831;22;20000;-43
2021/08/04 02:06:49;;;;;;;4.68;2.35;;;;;;;;;;6301997;22;20074;-48
2021/08/04 02:09:14;;;;;;;2.47;1.45;;;;;;;;;;6302507;22;20003;-42
2021/08/04 02:11:52;;;;;;;28.85;5.45;;;;;;;;;;6302370;22;20424;-46
2021/08/04 02:14:36;;;;;;;121.57;16.20;;;;;;;;;;6301792;22;19991;-43
2021/08/04 02:17:20;;;;;;;1.70;1.10;;;;;;;;;;6301637;22;20070;-45
2021/08/04 02:20:03;;;;;;;36.30;6.45;;;;;;;;;;6301311;22;20023;-43
2021/08/04 02:22:41;;;;;;;35.70;3.63;;;;;;;;;;6302248;22;20368;-45
2021/08/04 02:25:09;;;;;;;2.90;1.70;;;;;;;;;;6301779;22;20086;-43
2021/08/04 02:27:37;;;;;;;3.10;1.58;;;;;;;;;;6301429;22;20516;-45
2021/08/04 02:30:03;;;;;;;2.97;2.35;;;;;;;;;;6301922;22;20007;-46
2021/08/04 02:32:28;;;;;;;6.15;2.28;;;;;;;;;;6302190;22;19995;-44
2021/08/04 02:34:54;;;;;;;2.63;1.42;;;;;;;;;;6301546;22;20022;-47
2021/08/04 02:37:19;;;;;;;7.22;1.77;;;;;;;;;;6301589;22;20017;-44
2021/08/04 02:39:44;;;;;;;3.50;1.00;;;;;;;;;;6301590;22;20002;-45
2021/08/04 02:42:10;;;;;;;3.58;2.17;;;;;;;;;;6301400;22;20056;-42
2021/08/04 02:44:35;;;;;;;2.38;1.58;;;;;;;;;;6301878;22;20208;-44
2021/08/04 02:47:01;;;;;;;3.95;2.25;;;;;;;;;;6301818;22;20066;-43
2021/08/04 02:49:26;;;;;;;4.15;1.67;;;;;;;;;;6301937;22;20337;-45
2021/08/04 02:51:52;;;;;;;4.10;1.65;;;;;;;;;;6301781;22;20071;-42
2021/08/04 02:54:18;;;;;;;1.70;1.27;;;;;;;;;;6301841;22;19995;-44
2021/08/04 02:56:44;;;;;;;3.88;1.48;;;;;;;;;;6301602;22;20026;-43
2021/08/04 02:59:09;;;;;;;2.92;1.75;;;;;;;;;;6301717;22;20010;-41
2021/08/04 03:01:35;;;;;;;2.78;1.65;;;;;;;;;;6301930;22;20434;-42
2021/08/04 03:04:00;;;;;;;3.17;2.08;;;;;;;;;;6301615;22;20007;-43
2021/08/04 03:06:25;;;;;;;3.38;1.80;;;;;;;;;;6302156;22;20003;-45
2021/08/04 03:08:51;;;;;;;1.80;1.23;;;;;;;;;;6301653;22;20010;-45
2021/08/04 03:11:16;;;;;;;1.13;0.93;;;;;;;;;;6301238;22;20437;-43
2021/08/04 03:13:41;;;;;;;2.28;1.38;;;;;;;;;;6301923;22;20003;-43
2021/08/04 03:16:06;;;;;;;3.33;1.33;;;;;;;;;;6301488;22;19995;-43
2021/08/04 03:18:32;;;;;;;5.30;2.08;;;;;;;;;;6301240;22;20010;-41
2021/08/04 03:20:57;;;;;;;1.85;1.13;;;;;;;;;;6301020;22;20027;-43
2021/08/04 03:23:23;;;;;;;2.85;1.88;;;;;;;;;;6301036;22;20104;-44
2021/08/04 03:25:48;;;;;;;2.97;1.60;;;;;;;;;;6301705;22;20031;-45
2021/08/04 03:28:13;;;;;;;2.40;1.88;;;;;;;;;;6301438;22;20003;-43
2021/08/04 03:30:39;;;;;;;2.70;1.50;;;;;;;;;;6301273;22;20000;-44
2021/08/04 03:33:04;;;;;;;2.60;1.73;;;;;;;;;;6301356;22;20437;-45
2021/08/04 03:35:29;;;;;;;2.85;2.05;;;;;;;;;;6301634;22;20474;-43
2021/08/04 03:37:55;;;;;;;2.17;1.35;;;;;;;;;;6301481;22;20374;-41
2021/08/04 03:40:20;;;;;;;13.13;2.45;;;;;;;;;;6301490;22;19992;-45
2021/08/04 03:42:45;;;;;;;1.83;1.52;;;;;;;;;;6301492;22;20026;-43
2021/08/04 03:45:11;;;;;;;2.88;1.95;;;;;;;;;;6301056;22;20035;-43
2021/08/04 03:47:36;;;;;;;2.13;1.70;;;;;;;;;;6301468;22;20052;-44
2021/08/04 03:50:02;;;;;;;9.50;2.05;;;;;;;;;;6301263;22;20010;-44
2021/08/04 03:52:27;;;;;;;3.60;1.95;;;;;;;;;;6300987;22;19999;-49
2021/08/04 03:54:53;;;;;;;1.38;1.02;;;;;;;;;;6301424;22;19999;-45
2021/08/04 03:57:18;;;;;;;3.97;1.98;;;;;;;;;;6301410;22;20654;-48
2021/08/04 03:59:43;;;;;;;1.17;0.90;;;;;;;;;;6300848;22;20453;-44
2021/08/04 04:02:08;;;;;;;2.45;1.30;;;;;;;;;;6301605;22;19999;-43
2021/08/04 04:04:34;;;;;;;2.47;1.55;;;;;;;;;;6301200;22;20542;-44
2021/08/04 04:06:59;;;;;;;5.05;1.83;;;;;;;;;;6301090;22;19995;-48
2021/08/04 04:09:24;;;;;;;2.40;1.95;;;;;;;;;;6301071;22;20081;-44
2021/08/04 04:11:50;;;;;;;3.22;1.92;;;;;;;;;;6301254;22;20381;-46
2021/08/04 04:14:15;;;;;;;4.65;1.88;;;;;;;;;;6301225;22;20379;-45
2021/08/04 04:16:40;;;;;;;1.42;1.02;;;;;;;;;;6301054;22;20023;-46
2021/08/04 04:19:07;;;;;;;1.90;1.02;;;;;;;;;;6300841;22;20038;-46
2021/08/04 04:21:35;;;;;;;1.90;1.00;;;;;;;;;;6301128;22;20019;-43
2021/08/04 04:24:01;;;;;;;2.65;1.55;;;;;;;;;;6300885;22;20506;-45
2021/08/04 04:26:26;;;;;;;2.72;1.95;;;;;;;;;;6301094;22;20003;-45
2021/08/04 04:28:51;;;;;;;3.65;1.92;;;;;;;;;;6300535;22;20003;-44
2021/08/04 04:31:16;;;;;;;3.85;2.00;;;;;;;;;;6300750;22;20100;-44
2021/08/04 04:33:42;;;;;;;6.90;2.70;;;;;;;;;;6301044;22;19999;-45
2021/08/04 04:36:07;;;;;;;2.35;1.20;;;;;;;;;;6300877;22;19999;-43
2021/08/04 04:38:32;;;;;;;2.38;1.13;;;;;;;;;;6300760;22;19999;-46
2021/08/04 04:40:58;;;;;;;2.25;1.65;;;;;;;;;;6301005;22;20011;-44
2021/08/04 04:43:23;;;;;;;2.15;1.50;;;;;;;;;;6302440;22;19995;-45
2021/08/04 04:45:48;;;;;;;5.18;1.95;;;;;;;;;;6302878;22;20013;-46
2021/08/04 04:48:14;;;;;;;4.10;1.52;;;;;;;;;;6302349;22;20070;-44
2021/08/04 04:50:39;;;;;;;2.45;1.85;;;;;;;;;;6302719;22;20003;-42
2021/08/04 04:53:04;;;;;;;5.95;2.30;;;;;;;;;;6303045;22;20451;-44
2021/08/04 04:55:30;;;;;;;2.95;2.33;;;;;;;;;;6303028;22;20466;-45
2021/08/04 04:57:55;;;;;;;2.08;1.38;;;;;;;;;;6302868;22;19991;-44
2021/08/04 05:00:20;;;;;;;4.45;2.25;;;;;;;;;;6302392;22;20003;-43
2021/08/04 05:02:46;;;;;;;5.28;2.03;;;;;;;;;;6302751;22;20497;-43
2021/08/04 05:05:11;;;;;;;2.42;1.88;;;;;;;;;;6302533;22;20030;-46
2021/08/04 05:07:36;;;;;;;2.85;1.70;;;;;;;;;;6302535;22;20153;-43
2021/08/04 05:10:02;;;;;;;4.75;3.13;;;;;;;;;;6302794;22;19995;-44
2021/08/04 05:12:28;;;;;;;7.55;4.38;;;;;;;;;;6302478;22;19995;-43
2021/08/04 05:14:53;;;;;;;3.20;2.28;;;;;;;;;;6302667;22;20044;-44
2021/08/04 05:17:19;;;;;;;5.20;3.15;;;;;;;;;;6302660;22;20030;-45
2021/08/04 05:19:44;;;;;;;3.13;2.78;;;;;;;;;;6302333;22;20444;-44
2021/08/04 05:22:09;;;;;;;6.35;4.40;;;;;;;;;;6302629;22;20436;-44
2021/08/04 05:24:35;;;;;;;8.80;4.35;;;;;;;;;;6302643;22;20437;-43
2021/08/04 05:27:00;;;;;;;7.55;4.43;;;;;;;;;;6303293;22;20082;-43
2021/08/04 05:29:25;;;;;;;8.57;5.60;;;;;;;;;;6302322;22;20690;-44
2021/08/04 05:31:51;;;;;;;8.40;6.35;;;;;;;;;;6302218;22;19995;-48
2021/08/04 05:34:17;;;;;;;8.98;6.47;;;;;;;;;;6302099;22;20007;-42
2021/08/04 05:36:42;;;;;;;11.60;7.90;;;;;;;;;;6300606;22;20428;-42
2021/08/04 05:39:07;;;;;;;14.68;6.25;;;;;;;;;;6302469;22;20078;-43
2021/08/04 05:41:33;;;;;;;6.75;5.72;;;;;;;;;;6302612;22;20088;-41
2021/08/04 05:43:58;;;;;;;6.20;5.60;;;;;;;;;;6302321;22;20005;-43
2021/08/04 05:46:23;;;;;;;8.05;5.32;;;;;;;;;;6302569;22;19996;-42
2021/08/04 05:48:49;;;;;;;7.35;6.10;;;;;;;;;;6302539;22;20593;-42
2021/08/04 05:51:14;;;;;;;7.00;6.13;;;;;;;;;;6302145;22;20003;-42
2021/08/04 05:53:39;;;;;;;9.15;6.82;;;;;;;;;;6301854;22;20093;-43
2021/08/04 05:56:05;;;;;;;10.27;6.40;;;;;;;;;;6302194;22;20117;-42
2021/08/04 05:58:30;;;;;;;12.40;6.15;;;;;;;;;;6301582;22;20022;-44
2021/08/04 06:00:55;;;;;;;8.43;6.40;;;;;;;;;;6302289;22;19995;-41
2021/08/04 06:03:20;;;;;;;4.45;3.92;;;;;;;;;;6302463;22;20100;-42
2021/08/04 06:05:46;;;;;;;6.05;5.07;;;;;;;;;;6302017;22;20017;-41
2021/08/04 06:08:11;;;;;;;5.88;5.20;;;;;;;;;;6301729;22;20002;-42
2021/08/04 06:10:36;;;;;;;5.95;5.35;;;;;;;;;;6302199;22;20003;-50
2021/08/04 06:13:02;;;;;;;8.98;5.63;;;;;;;;;;6301872;22;19999;-42
2021/08/04 06:15:27;;;;;;;8.82;7.18;;;;;;;;;;6301997;22;19995;-42
2021/08/04 06:17:52;;;;;;;11.15;7.78;;;;;;;;;;6301767;22;20005;-41
2021/08/04 06:20:18;;;;;;;5.03;3.95;;;;;;;;;;6301614;22;20011;-43
2021/08/04 06:22:43;;;;;;;9.55;5.93;;;;;;;;;;6301460;22;20413;-44
2021/08/04 06:25:09;;;;;;;6.75;4.25;;;;;;;;;;6301931;22;19995;-42
2021/08/04 06:27:34;;;;;;;6.13;5.55;;;;;;;;;;6301991;22;20003;-42
2021/08/04 06:29:59;;;;;;;6.60;5.97;;;;;;;;;;6301751;22;20408;-42
2021/08/04 06:32:25;;;;;;;5.90;4.97;;;;;;;;;;6301670;22;19999;-46
2021/08/04 06:34:50;;;;;;;10.50;6.75;;;;;;;;;;6301838;22;20154;-47
2021/08/04 06:37:15;;;;;;;7.30;5.95;;;;;;;;;;6301545;22;19999;-46
2021/08/04 06:39:40;;;;;;;7.78;5.15;;;;;;;;;;6302234;22;20010;-42
2021/08/04 06:42:06;;;;;;;8.15;6.13;;;;;;;;;;6301943;22;20038;-47
2021/08/04 06:44:31;;;;;;;13.50;11.45;;;;;;;;;;6301491;22;20490;-42
2021/08/04 06:46:57;;;;;;;12.50;8.35;;;;;;;;;;6301683;22;20013;-48
2021/08/04 06:49:23;;;;;;;5.38;4.82;;;;;;;;;;6301384;22;20034;-48
2021/08/04 06:51:48;;;;;;;5.28;4.57;;;;;;;;;;6301523;22;19994;-45
2021/08/04 06:54:14;;;;;;;12.95;7.63;;;;;;;;;;6301814;22;19995;-48
2021/08/04 06:56:39;;;;;;;9.48;7.18;;;;;;;;;;6301780;22;20515;-46
2021/08/04 06:59:04;;;;;;;9.88;7.10;;;;;;;;;;6301130;22;20005;-42
2021/08/04 07:01:30;;;;;;;8.88;5.63;;;;;;;;;;6301801;22;20470;-43
2021/08/04 07:03:55;;;;;;;8.57;6.65;;;;;;;;;;6301309;22;20011;-43
2021/08/04 07:06:20;;;;;;;10.40;7.45;;;;;;;;;;6301299;22;20006;-41
2021/08/04 07:08:46;;;;;;;10.10;7.25;;;;;;;;;;6301530;22;20011;-41
2021/08/04 07:11:11;;;;;;;8.90;6.63;;;;;;;;;;6301331;22;20018;-42
2021/08/04 07:13:36;;;;;;;7.82;7.03;;;;;;;;;;6301179;22;20026;-42
2021/08/04 07:16:02;;;;;;;6.95;5.32;;;;;;;;;;6301164;22;20002;-41
2021/08/04 07:18:27;;;;;;;6.03;1.58;;;;;;;;;;6300840;22;20027;-41
2021/08/04 07:20:52;;;;;;;3.65;2.63;;;;;;;;;;6301033;22;20015;-44
2021/08/04 07:23:18;;;;;;;5.97;4.22;;;;;;;;;;6301027;22;20381;-40
2021/08/04 07:25:43;;;;;;;6.03;1.85;;;;;;;;;;6301449;22;20010;-40
2021/08/04 07:28:08;;;;;;;2.50;1.05;;;;;;;;;;6301351;22;20316;-41
2021/08/04 07:30:34;;;;;;;1.40;0.75;;;;;;;;;;6301201;22;19995;-46
2021/08/04 07:32:59;;;;;;;1.70;0.85;;;;;;;;;;6300942;22;20056;-47
2021/08/04 07:35:25;;;;;;;6.55;3.67;;;;;;;;;;6300952;22;20420;-45
2021/08/04 07:37:50;;;;;;;5.72;4.68;;;;;;;;;;6300744;22;20006;-45
2021/08/04 07:40:17;;;;;;;3.15;2.53;;;;;;;;;;6299646;22;20022;-49
2021/08/04 07:42:42;;;;;;;6.72;1.55;;;;;;;;;;6299072;22;19999;-51
2021/08/04 07:45:08;;;;;;;5.20;2.10;;;;;;;;;;6298985;22;20002;-50
2021/08/04 07:47:34;;;;;;;3.20;1.50;;;;;;;;;;6299632;22;19999;-45
2021/08/04 07:49:59;;;;;;;5.15;1.60;;;;;;;;;;6300128;22;20003;-59
2021/08/04 07:52:24;;;;;;;3.25;2.38;;;;;;;;;;6300003;22;20405;-49
2021/08/04 07:54:50;;;;;;;4.00;1.55;;;;;;;;;;6299391;22;20003;-48
2021/08/04 07:57:15;;;;;;;2.95;1.52;;;;;;;;;;6300291;22;19998;-45
2021/08/04 07:59:40;;;;;;;14.95;3.65;;;;;;;;;;6301290;22;20039;-49
2021/08/04 08:02:06;;;;;;;12.80;4.38;;;;;;;;;;6301359;22;20114;-50
2021/08/04 08:04:31;;;;;;;31.92;4.82;;;;;;;;;;6301209;22;20053;-43
2021/08/04 08:06:58;;;;;;;11.95;3.83;;;;;;;;;;6301535;22;20003;-49
2021/08/04 08:09:24;;;;;;;16.55;3.47;;;;;;;;;;6301007;22;20003;-50
2021/08/04 08:11:50;;;;;;;5.57;3.17;;;;;;;;;;6300964;22;20048;-46
2021/08/04 08:14:16;;;;;;;12.55;3.63;;;;;;;;;;6300814;22;20074;-48
2021/08/04 08:16:41;;;;;;;2.88;1.98;;;;;;;;;;6302004;22;20003;-50
2021/08/04 08:19:06;;;;;;;3.08;2.13;;;;;;;;;;6302635;22;20061;-49
2021/08/04 08:21:32;;;;;;;3.78;2.45;;;;;;;;;;6303353;22;20034;-46
2021/08/04 08:23:57;;;;;;;4.13;2.85;;;;;;;;;;6302957;22;20070;-44
2021/08/04 08:26:23;;;;;;;3.50;1.65;;;;;;;;;;6303069;22;20002;-44
2021/08/04 08:28:48;;;;;;;3.85;2.03;;;;;;;;;;6303026;22;20057;-42
2021/08/04 08:31:14;;;;;;;3.38;2.00;;;;;;;;;;6302858;22;20336;-44
2021/08/04 08:33:39;;;;;;;4.15;2.58;;;;;;;;;;6302837;22;20044;-45
2021/08/04 08:36:04;;;;;;;2.83;1.90;;;;;;;;;;6302113;22;19999;-46
2021/08/04 08:38:29;;;;;;;2.63;1.90;;;;;;;;;;6302904;22;20003;-45
2021/08/04 08:40:55;;;;;;;3.53;1.75;;;;;;;;;;6302988;22;20378;-41
2021/08/04 08:43:20;;;;;;;4.20;1.60;;;;;;;;;;6303246;22;20498;-43
2021/08/04 08:45:47;;;;;;;4.93;1.50;;;;;;;;;;6302725;22;20073;-43
2021/08/04 08:48:16;;;;;;;1.50;1.10;;;;;;;;;;6302309;22;19999;-42
2021/08/04 08:50:42;;;;;;;10.07;2.08;;;;;;;;;;6302192;22;19995;-42
2021/08/04 08:53:08;;;;;;;1.63;1.15;;;;;;;;;;6302628;22;20611;-42
2021/08/04 08:55:33;;;;;;;1.85;1.20;;;;;;;;;;6302736;22;20003;-44
2021/08/04 08:57:58;;;;;;;2.63;2.25;;;;;;;;;;6302554;22;19995;-43
2021/08/04 09:00:24;;;;;;;4.68;1.70;;;;;;;;;;6302853;22;19995;-44
2021/08/04 09:02:49;;;;;;;2.38;1.40;;;;;;;;;;6303106;22;20006;-45
2021/08/04 09:05:17;;;;;;;1.83;0.82;;;;;;;;;;6302976;22;20017;-44
2021/08/04 09:07:44;;;;;;;3.05;1.67;;;;;;;;;;6302387;22;20597;-42
2021/08/04 09:10:33;;;;;;;3.30;2.25;;;;;;;;;;6302272;22;20048;-44
2021/08/04 09:13:03;;;;;;;2.97;1.67;;;;;;;;;;6301992;22;19994;-43
2021/08/04 09:15:28;;;;;;;7.55;2.00;;;;;;;;;;6301964;22;20082;-42
2021/08/04 09:18:04;;;;;;;3.15;1.75;;;;;;;;;;6302469;22;20026;-43
2021/08/04 09:20:30;;;;;;;4.15;1.60;;;;;;;;;;6302252;22;20003;-47
2021/08/04 09:23:00;;;;;;;1.33;0.82;;;;;;;;;;6302609;22;20309;-42
2021/08/04 09:25:25;;;;;;;3.85;1.48;;;;;;;;;;6302196;22;20019;-42
2021/08/04 09:27:56;;;;;;;2.90;1.92;;;;;;;;;;6302066;22;19998;-46
2021/08/04 09:30:28;;;;;;;4.68;2.53;;;;;;;;;;6302617;22;20007;-41
2021/08/04 09:32:54;;;;;;;5.38;3.67;;;;;;;;;;6301860;22;20003;-44
2021/08/04 09:35:21;;;;;;;12.23;9.85;;;;;;;;;;6301567;22;20002;-43
2021/08/04 09:37:47;;;;;;;7.40;2.85;;;;;;;;;;6302309;22;20015;-44
2021/08/04 09:40:14;;;;;;;3.00;2.35;;;;;;;;;;6301769;22;20010;-45
2021/08/04 09:42:40;;;;;;;2.25;1.80;;;;;;;;;;6302171;22;20463;-47
2021/08/04 09:45:06;;;;;;;3.55;1.25;;;;;;;;;;6302359;22;20023;-42
2021/08/04 09:47:31;;;;;;;3.45;2.15;;;;;;;;;;6301959;22;20007;-42
2021/08/04 09:50:07;;;;;;;3.17;1.65;;;;;;;;;;6301483;22;20431;-42
2021/08/04 09:52:32;;;;;;;3.03;1.58;;;;;;;;;;6301695;22;20504;-44
2021/08/04 09:55:17;;;;;;;4.18;1.80;;;;;;;;;;6301612;22;20074;-41
2021/08/04 09:57:51;;;;;;;2.58;1.95;;;;;;;;;;6301297;22;20424;-42
2021/08/04 10:00:17;;;;;;;2.95;1.38;;;;;;;;;;6301735;22;19999;-41
2021/08/04 10:02:46;;;;;;;3.10;1.80;;;;;;;;;;6301371;22;20640;-48
2021/08/04 10:05:15;;;;;;;3.83;1.45;;;;;;;;;;6301626;22;20003;-43
2021/08/04 10:08:00;;;;;;;2.92;1.70;;;;;;;;;;6301651;22;20694;-40
2021/08/04 10:10:25;;;;;;;1.10;0.60;;;;;;;;;;6301150;22;20432;-41
2021/08/04 10:12:51;;;;;;;3.38;1.70;;;;;;;;;;6299626;22;20003;-41
2021/08/04 10:15:16;;;;;;;4.47;1.80;;;;;;;;;;6301532;22;20007;-42
2021/08/04 10:17:42;;;;;;;3.10;1.48;;;;;;;;;;6302177;22;20595;-41
2021/08/04 10:20:07;;;;;;;2.40;1.58;;;;;;;;;;6301226;22;20494;-42
2021/08/04 10:22:33;;;;;;;4.35;1.40;;;;;;;;;;6301846;22;20044;-45
2021/08/04 10:24:58;;;;;;;4.20;1.38;;;;;;;;;;6301997;22;19998;-41
2021/08/04 10:27:24;;;;;;;3.25;1.77;;;;;;;;;;6301460;22;20424;-42
2021/08/04 10:29:49;;;;;;;2.72;1.77;;;;;;;;;;6301884;22;20090;-44
2021/08/04 10:32:15;;;;;;;20.88;2.88;;;;;;;;;;6301289;22;19991;-44
2021/08/04 10:34:42;;;;;;;11.43;3.42;;;;;;;;;;6301678;22;20136;-44
2021/08/04 10:37:07;;;;;;;4.20;2.50;;;;;;;;;;6301498;22;20003;-48
2021/08/04 10:39:33;;;;;;;13.57;2.53;;;;;;;;;;6300525;22;20022;-45
2021/08/04 10:42:02;;;;;;;5.13;2.83;;;;;;;;;;6301738;22;20052;-43
2021/08/04 10:44:28;;;;;;;3.00;1.57;;;;;;;;;;6301535;22;20006;-45
2021/08/04 10:46:54;;;;;;;4.65;1.77;;;;;;;;;;6300822;22;20000;-42
2021/08/04 10:49:24;;;;;;;7.53;1.73;;;;;;;;;;6299637;22;20427;-44
2021/08/04 10:51:59;;;;;;;2.40;1.58;;;;;;;;;;6300433;22;20059;-45
2021/08/04 10:54:24;;;;;;;4.63;1.52;;;;;;;;;;6301072;22;20448;-43
2021/08/04 10:56:49;;;;;;;10.25;2.30;;;;;;;;;;6301257;22;20006;-44
2021/08/04 10:59:25;;;;;;;3.72;1.30;;;;;;;;;;6300832;22;20025;-43
2021/08/04 11:01:54;;;;;;;5.97;1.92;;;;;;;;;;6301387;22;20075;-42
2021/08/04 11:04:28;;;;;;;3.25;1.95;;;;;;;;;;6301528;22;19999;-41
2021/08/04 11:07:09;;;;;;;6.10;1.60;;;;;;;;;;6301691;22;20019;-44
2021/08/04 11:09:34;;;;;;;;;;;;;;;;;;6302072;22;20003;-45
2021/08/04 11:12:02;;;;;;;3.83;2.00;;;;;;;;;;6301127;22;20278;-44
2021/08/04 11:14:39;;;;;;;3.05;1.58;;;;;;;;;;6301488;22;20949;-44
2021/08/04 11:17:06;;;;;;;3.47;1.98;;;;;;;;;;6301385;22;20326;-45
2021/08/04 11:19:34;;;;;;;4.10;2.05;;;;;;;;;;6301026;22;20015;-46
2021/08/04 11:22:18;;;;;;;7.65;5.75;;;;;;;;;;6301028;22;20125;-42
2021/08/04 11:24:51;;;;;;;5.10;1.90;;;;;;;;;;6301320;22;20010;-48
2021/08/04 11:27:16;;;;;;;3.25;1.63;;;;;;;;;;6301622;22;20092;-49
2021/08/04 11:29:45;;;;;;;6.82;1.75;;;;;;;;;;6301766;22;19999;-44
2021/08/04 11:32:15;;;;;;;6.93;2.30;;;;;;;;;;6300920;22;20492;-44
2021/08/04 11:34:40;;;;;;;4.32;2.13;;;;;;;;;;6300878;22;20417;-43
2021/08/04 11:37:05;;;;;;;4.53;2.25;;;;;;;;;;6300831;22;20002;-46
2021/08/04 11:39:30;;;;;;;20.65;2.80;;;;;;;;;;6301502;22;20040;-49
2021/08/04 11:41:56;;;;;;;5.80;1.48;;;;;;;;;;6301015;22;20341;-51
2021/08/04 11:44:28;;;;;;;5.18;2.00;;;;;;;;;;6301132;22;20004;-53
2021/08/04 11:46:55;;;;;;;1.90;1.10;;;;;;;;;;6301143;22;20007;-49
2021/08/04 11:49:20;;;;;;;3.03;1.42;;;;;;;;;;6301197;22;19999;-53
2021/08/04 11:51:50;;;;;;;2.78;1.25;;;;;;;;;;6301461;22;20553;-53
2021/08/04 11:54:25;;;;;;;12.82;3.03;;;;;;;;;;6300927;22;19992;-47
2021/08/04 11:56:51;;;;;;;3.22;1.88;;;;;;;;;;6300731;22;20037;-49
2021/08/04 11:59:16;;;;;;;3.17;1.75;;;;;;;;;;6301489;22;20007;-45
2021/08/04 12:01:53;;;;;;;4.85;1.90;;;;;;;;;;6301323;22;20003;-46
2021/08/04 12:04:18;;;;;;;5.07;1.88;;;;;;;;;;6301510;22;20049;-45
2021/08/04 12:06:54;;;;;;;2.22;1.30;;;;;;;;;;6300641;22;20010;-44
2021/08/04 12:09:20;;;;;;;5.93;1.48;;;;;;;;;;6300955;22;19995;-47
2021/08/04 12:11:46;;;;;;;1.55;1.23;;;;;;;;;;6301317;22;19995;-44
2021/08/04 12:14:13;;;;;;;5.57;2.50;;;;;;;;;;6301372;22;20022;-44
2021/08/04 12:16:42;;;;;;;5.93;2.35;;;;;;;;;;6301345;22;19998;-46
2021/08/04 12:19:07;;;;;;;6.75;1.98;;;;;;;;;;6300906;22;20077;-43
2021/08/04 12:21:33;;;;;;;3.33;1.77;;;;;;;;;;6301217;22;20019;-43
2021/08/04 12:23:58;;;;;;;3.05;2.50;;;;;;;;;;6301288;22;20506;-44
2021/08/04 12:26:23;;;;;;;10.30;1.85;;;;;;;;;;6300827;22;20561;-44
2021/08/04 12:28:49;;;;;;;6.20;2.35;;;;;;;;;;6300809;22;20022;-45
2021/08/04 12:31:14;;;;;;;2.97;1.88;;;;;;;;;;6300677;22;20000;-36
2021/08/04 12:33:46;;;;;;;4.93;4.18;;;;;;;;;;6300988;22;19995;-36
2021/08/04 12:38:43;;;;;;;9.00;2.03;;;;;;;;;;6311154;22;20056;-35
2021/08/04 12:41:09;;;;;;;2.95;1.48;;;;;;;;;;6300908;22;20003;-36
2021/08/04 12:43:36;;;;;;;5.13;1.90;;;;;;;;;;6301102;22;20739;-36
2021/08/04 12:46:03;;;;;;;4.70;1.67;;;;;;;;;;6301358;22;20011;-36
2021/08/04 12:48:37;;;;;;;9.07;2.67;;;;;;;;;;6300756;22;20015;-36
2021/08/04 12:51:03;;;;;;;2.85;1.75;;;;;;;;;;6300896;22;20015;-36
2021/08/04 12:53:29;;;;;;;1.80;1.55;;;;;;;;;;6300915;22;20516;-37
2021/08/04 12:55:57;;;;;;;2.67;1.80;;;;;;;;;;6301134;22;19995;-37
2021/08/04 12:58:22;;;;;;;2.95;1.55;;;;;;;;;;6300740;22;20010;-35
2021/08/04 13:00:48;;;;;;;1.77;1.23;;;;;;;;;;6301088;22;20329;-36
2021/08/04 13:03:28;;;;;;;9.85;2.72;;;;;;;;;;6301537;22;20496;-35
2021/08/04 13:05:53;;;;;;;6.75;1.88;;;;;;;;;;6302573;22;20005;-36
2021/08/04 13:08:29;;;;;;;2.83;1.88;;;;;;;;;;6302939;22;20100;-35
2021/08/04 13:10:54;;;;;;;3.50;2.25;;;;;;;;;;6302514;22;20044;-36
2021/08/04 13:13:19;;;;;;;13.98;7.15;;;;;;;;;;6302648;22;20006;-36
2021/08/04 13:15:47;;;;;;;6.03;1.90;;;;;;;;;;6302740;22;20357;-39
2021/08/04 13:18:13;;;;;;;3.83;1.20;;;;;;;;;;6302663;22;20006;-41
2021/08/04 13:20:38;;;;;;;9.38;2.35;;;;;;;;;;6302140;22;20015;-38
2021/08/04 13:23:08;;;;;;;4.30;1.63;;;;;;;;;;6302399;22;20034;-39
2021/08/04 13:25:46;;;;;;;2.73;0.97;;;;;;;;;;6302476;22;20002;-39
2021/08/04 13:28:12;;;;;;;9.10;3.08;;;;;;;;;;6302579;22;20018;-38
2021/08/04 13:30:40;;;;;;;13.80;2.72;;;;;;;;;;6302466;22;20010;-38
2021/08/04 13:33:06;;;;;;;10.60;4.05;;;;;;;;;;6302033;22;20303;-40
2021/08/04 13:35:32;;;;;;;3.83;2.15;;;;;;;;;;6302648;22;20003;-39
2021/08/04 13:37:57;;;;;;;2.83;1.48;;;;;;;;;;6302458;22;20003;-45
2021/08/04 13:40:23;;;;;;;4.82;1.50;;;;;;;;;;6302075;22;20003;-43
2021/08/04 13:42:49;;;;;;;11.38;3.67;;;;;;;;;;6302269;22;20051;-45
2021/08/04 13:45:16;;;;;;;9.23;2.00;;;;;;;;;;6302782;22;20006;-45
2021/08/04 13:47:42;;;;;;;6.38;2.05;;;;;;;;;;6302420;22;19999;-43
2021/08/04 13:50:07;;;;;;;4.30;2.13;;;;;;;;;;6302265;22;20318;-48
2021/08/04 13:52:33;;;;;;;5.80;3.03;;;;;;;;;;6302156;22;19995;-45
2021/08/04 13:55:03;;;;;;;2.97;2.15;;;;;;;;;;6302456;22;20070;-47
2021/08/04 13:57:29;;;;;;;6.53;2.75;;;;;;;;;;6302111;22;20348;-47
2021/08/04 13:59:54;;;;;;;3.75;2.40;;;;;;;;;;6302432;22;20006;-48
2021/08/04 14:02:19;;;;;;;5.95;2.67;;;;;;;;;;6302086;22;20010;-49
2021/08/04 14:04:45;;;;;;;5.28;2.22;;;;;;;;;;6302122;22;20476;-46
2021/08/04 14:07:10;;;;;;;4.75;2.28;;;;;;;;;;6301983;22;19995;-45
2021/08/04 14:09:36;;;;;;;4.18;2.20;;;;;;;;;;6301501;22;20023;-49
2021/08/04 14:12:01;;;;;;;3.88;1.63;;;;;;;;;;6301545;22;19991;-46
2021/08/04 14:14:27;;;;;;;15.27;2.70;;;;;;;;;;6302189;22;20000;-46
2021/08/04 14:16:52;;;;;;;7.50;2.70;;;;;;;;;;6301954;22;19995;-50
2021/08/04 14:19:18;;;;;;;7.35;2.92;;;;;;;;;;6302013;22;20006;-48
2021/08/04 14:21:43;;;;;;;3.15;2.53;;;;;;;;;;6301916;22;20416;-45
2021/08/04 14:24:09;;;;;;;6.15;2.97;;;;;;;;;;6301632;22;20003;-49
2021/08/04 14:26:34;;;;;;;4.50;2.17;;;;;;;;;;6302298;22;19999;-51
2021/08/04 14:28:59;;;;;;;15.70;3.28;;;;;;;;;;6301726;22;20593;-41
2021/08/04 14:31:25;;;;;;;3.03;1.65;;;;;;;;;;6301748;22;20323;-44
2021/08/04 14:33:50;;;;;;;5.72;2.42;;;;;;;;;;6302012;22;20451;-43
2021/08/04 14:36:15;;;;;;;8.10;1.73;;;;;;;;;;6301977;22;20747;-46
2021/08/04 14:38:41;;;;;;;3.70;2.20;;;;;;;;;;6301656;22;20007;-48
2021/08/04 14:41:06;;;;;;;13.95;3.30;;;;;;;;;;6301319;22;20060;-40